createdAt,value
2022-09-14T00:01:36.335Z,8.02
2022-09-14T00:04:06.986Z,8.13
2022-09-14T00:06:35.431Z,7.80
2022-09-14T00:09:06.835Z,7.28
2022-09-14T00:11:38.272Z,7.97
2022-09-14T00:14:07.234Z,7.18
2022-09-14T00:16:37.734Z,7.75
2022-09-14T00:19:08.456Z,7.63
2022-09-14T00:21:38.915Z,8.25
2022-09-14T00:24:08.419Z,7.93
2022-09-14T00:26:38.242Z,8.00
2022-09-14T00:29:07.341Z,8.18
2022-09-14T00:31:38.838Z,7.80
2022-09-14T00:34:08.990Z,8.93
2022-09-14T00:36:43.406Z,7.70
2022-09-14T00:39:12.132Z,8.73
2022-09-14T00:41:43.356Z,7.80
2022-09-14T00:44:44.879Z,8.40
2022-09-14T00:47:15.136Z,10.02
2022-09-14T00:49:44.953Z,8.30
2022-09-14T00:52:17.235Z,9.50
2022-09-14T00:54:48.140Z,9.88
2022-09-14T00:57:18.387Z,9.27
2022-09-14T00:59:49.237Z,9.50
2022-09-14T01:02:19.596Z,9.10
2022-09-14T01:04:48.484Z,9.02
2022-09-14T01:07:32.235Z,8.75
2022-09-14T01:10:10.156Z,9.20
2022-09-14T01:12:49.530Z,9.00
2022-09-14T01:15:26.562Z,9.93
2022-09-14T01:18:01.952Z,8.68
2022-09-14T01:20:36.491Z,9.48
2022-09-14T01:23:11.619Z,9.55
2022-09-14T01:26:16.245Z,8.98
2022-09-14T01:28:52.665Z,9.60
2022-09-14T01:31:26.721Z,9.15
2022-09-14T01:34:09.609Z,9.05
2022-09-14T01:36:40.948Z,9.57
2022-09-14T01:39:10.564Z,9.60
2022-09-14T01:41:41.241Z,9.35
2022-09-14T01:44:15.955Z,9.35
2022-09-14T01:46:48.707Z,10.15
2022-09-14T01:49:19.664Z,10.18
2022-09-14T01:51:49.580Z,9.87
2022-09-14T01:54:23.551Z,11.65
2022-09-14T01:56:54.951Z,10.98
2022-09-14T01:59:27.631Z,9.85
2022-09-14T02:02:00.895Z,10.27
2022-09-14T02:04:35.570Z,11.20
2022-09-14T02:07:04.850Z,11.68
2022-09-14T02:09:33.209Z,12.25
2022-09-14T02:12:01.567Z,12.05
2022-09-14T02:14:31.847Z,13.60
2022-09-14T02:17:00.151Z,12.27
2022-09-14T02:19:33.871Z,12.02
2022-09-14T02:22:01.944Z,13.90
2022-09-14T02:24:30.692Z,13.07
2022-09-14T02:26:59.878Z,11.32
2022-09-14T02:29:28.026Z,11.80
2022-09-14T02:32:11.118Z,10.73
2022-09-14T02:34:47.690Z,13.35
2022-09-14T02:37:22.139Z,12.77
2022-09-14T02:39:59.184Z,14.18
2022-09-14T02:42:37.106Z,13.13
2022-09-14T02:45:12.304Z,13.70
2022-09-14T02:47:55.353Z,13.13
2022-09-14T02:50:28.444Z,12.27
2022-09-14T02:53:03.148Z,14.30
2022-09-14T02:55:36.642Z,12.98
2022-09-14T02:58:07.546Z,13.13
2022-09-14T03:00:37.597Z,13.50
2022-09-14T03:03:08.707Z,12.32
2022-09-14T03:05:37.406Z,13.30
2022-09-14T03:08:06.573Z,13.13
2022-09-14T03:10:35.490Z,13.70
2022-09-14T03:13:03.771Z,14.77
2022-09-14T03:15:32.299Z,15.18
2022-09-14T03:18:00.450Z,14.30
2022-09-14T03:20:32.712Z,13.43
2022-09-14T03:23:01.784Z,13.88
2022-09-14T03:25:30.371Z,14.45
2022-09-14T03:27:59.631Z,13.80
2022-09-14T03:30:29.183Z,12.68
2022-09-14T03:32:57.352Z,12.85
2022-09-14T03:35:25.679Z,13.20
2022-09-14T03:37:55.119Z,11.20
2022-09-14T03:40:23.221Z,12.40
2022-09-14T03:42:52.750Z,14.05
2022-09-14T03:45:21.898Z,14.27
2022-09-14T03:47:50.276Z,13.73
2022-09-14T03:50:19.652Z,13.70
2022-09-14T03:52:47.969Z,14.32
2022-09-14T03:55:19.188Z,13.52
2022-09-14T03:57:47.257Z,13.93
2022-09-14T04:00:16.545Z,12.93
2022-09-14T04:02:45.424Z,14.02
2022-09-14T04:05:13.641Z,15.25
2022-09-14T04:07:41.699Z,14.43
2022-09-14T04:10:10.807Z,14.50
2022-09-14T04:12:40.810Z,13.38
2022-09-14T04:15:09.807Z,12.20
2022-09-14T04:17:37.859Z,12.05
2022-09-14T04:20:06.574Z,12.18
2022-09-14T04:22:35.242Z,12.80
2022-09-14T04:25:03.468Z,11.95
2022-09-14T04:27:31.955Z,11.23
2022-09-14T04:30:01.381Z,11.30
2022-09-14T04:32:34.060Z,11.55
2022-09-14T04:35:02.623Z,11.52
2022-09-14T04:37:32.887Z,10.68
2022-09-14T04:40:01.084Z,11.07
2022-09-14T04:42:30.923Z,11.05
2022-09-14T04:44:59.070Z,10.13
2022-09-14T04:47:30.568Z,10.38
2022-09-14T04:49:58.600Z,11.15
2022-09-14T04:52:26.663Z,10.48
2022-09-14T04:54:54.712Z,9.73
2022-09-14T04:57:22.780Z,9.13
2022-09-14T04:59:50.874Z,9.98
2022-09-14T05:02:18.995Z,9.10
2022-09-14T05:04:48.539Z,8.90
2022-09-14T05:07:16.618Z,7.65
2022-09-14T05:09:45.030Z,8.65
2022-09-14T05:12:13.117Z,9.00
2022-09-14T05:14:41.252Z,9.73
2022-09-14T05:17:09.459Z,9.32
2022-09-14T05:19:37.629Z,8.95
2022-09-14T05:22:07.136Z,8.90
2022-09-14T05:24:35.739Z,9.20
2022-09-14T05:27:03.818Z,8.90
2022-09-14T05:29:31.979Z,9.70
2022-09-14T05:32:00.214Z,8.75
2022-09-14T05:34:28.319Z,9.73
2022-09-14T05:36:56.384Z,8.93
2022-09-14T05:39:26.201Z,8.80
2022-09-14T05:41:54.290Z,8.45
2022-09-14T05:44:22.413Z,7.38
2022-09-14T05:46:50.555Z,8.15
2022-09-14T05:49:18.744Z,7.22
2022-09-14T05:51:46.775Z,6.10
2022-09-14T05:54:14.844Z,6.63
2022-09-14T05:56:44.279Z,6.45
2022-09-14T05:59:12.318Z,6.30
2022-09-14T06:01:40.650Z,6.55
2022-09-14T06:04:10.693Z,5.70
2022-09-14T06:06:38.793Z,5.13
2022-09-14T06:09:07.053Z,4.75
2022-09-14T06:11:37.379Z,4.82
2022-09-14T06:14:07.492Z,5.18
2022-09-14T06:16:36.034Z,4.53
2022-09-14T06:19:04.394Z,4.85
2022-09-14T06:21:34.531Z,3.88
2022-09-14T06:24:02.779Z,4.40
2022-09-14T06:26:31.236Z,4.18
2022-09-14T06:28:59.612Z,3.80
2022-09-14T06:31:29.096Z,4.00
2022-09-14T06:33:57.136Z,4.22
2022-09-14T06:36:27.586Z,4.40
2022-09-14T06:38:56.537Z,4.20
2022-09-14T06:41:29.150Z,3.85
2022-09-14T06:43:58.602Z,3.97
2022-09-14T06:46:29.873Z,3.67
2022-09-14T06:48:59.349Z,3.28
2022-09-14T06:51:29.600Z,3.22
2022-09-14T06:54:00.430Z,3.10
2022-09-14T06:56:29.284Z,3.30
2022-09-14T06:58:58.391Z,2.97
2022-09-14T07:01:27.683Z,3.05
2022-09-14T07:03:58.131Z,2.60
2022-09-14T07:06:28.057Z,3.00
2022-09-14T07:08:56.765Z,3.22
2022-09-14T07:11:26.928Z,3.35
2022-09-14T07:13:58.744Z,3.20
2022-09-14T07:18:56.364Z,2.38
2022-09-14T07:21:25.369Z,2.40
2022-09-14T07:23:54.050Z,2.47
2022-09-14T07:26:24.321Z,2.78
2022-09-14T07:29:00.526Z,2.30
2022-09-14T07:31:30.980Z,2.30
2022-09-14T07:34:03.374Z,2.40
2022-09-14T07:36:35.103Z,2.53
2022-09-14T07:39:05.831Z,1.63
2022-09-14T07:41:34.826Z,1.70
2022-09-14T07:44:05.222Z,1.70
2022-09-14T07:46:38.270Z,1.83
2022-09-14T07:49:09.349Z,2.13
2022-09-14T07:51:37.995Z,2.25
2022-09-14T07:54:07.585Z,2.38
2022-09-14T07:56:36.065Z,2.28
2022-09-14T07:59:33.481Z,1.90
2022-09-14T08:01:53.322Z,1.58
2022-09-14T08:04:23.360Z,1.45
2022-09-14T08:06:51.397Z,1.73
2022-09-14T08:09:19.466Z,2.00
2022-09-14T08:11:47.567Z,1.67
2022-09-14T08:14:15.612Z,1.80
2022-09-14T08:16:43.840Z,1.67
2022-09-14T08:19:15.634Z,1.98
2022-09-14T08:26:45.429Z,1.38
2022-09-14T08:29:13.557Z,1.45
2022-09-14T08:31:43.203Z,1.90
2022-09-14T08:34:11.407Z,1.40
2022-09-14T08:36:40.792Z,1.63
2022-09-14T08:39:11.956Z,1.83
2022-09-14T08:41:44.713Z,2.20
2022-09-14T08:44:18.151Z,1.95
2022-09-14T08:46:50.126Z,1.88
2022-09-14T08:49:26.013Z,2.13
2022-09-14T08:51:54.152Z,2.08
2022-09-14T08:54:24.162Z,2.08
2022-09-14T08:56:59.951Z,1.90
2022-09-14T08:59:44.072Z,2.20
2022-09-14T09:02:41.878Z,2.20
2022-09-14T09:05:24.983Z,2.20
2022-09-14T09:07:58.528Z,2.00
2022-09-14T09:10:29.178Z,1.50
2022-09-14T09:13:00.911Z,1.85
2022-09-14T09:18:03.344Z,2.33
2022-09-14T09:20:34.565Z,2.20
2022-09-14T09:23:11.726Z,2.20
2022-09-14T09:25:52.464Z,2.60
2022-09-14T09:28:23.043Z,2.42
2022-09-14T09:30:51.424Z,2.10
2022-09-14T09:33:29.550Z,1.70
2022-09-14T09:35:58.022Z,2.25
2022-09-14T09:38:27.848Z,1.80
2022-09-14T09:41:06.511Z,2.15
2022-09-14T09:43:49.056Z,1.70
2022-09-14T09:46:18.716Z,1.85
2022-09-14T09:48:48.294Z,1.80
2022-09-14T09:51:23.535Z,1.88
2022-09-14T09:53:54.735Z,1.60
2022-09-14T09:56:26.671Z,1.55
2022-09-14T09:58:54.747Z,2.00
2022-09-14T10:01:28.176Z,2.00
2022-09-14T10:04:06.188Z,1.70
2022-09-14T10:06:43.325Z,1.90
2022-09-14T10:09:16.996Z,1.92
2022-09-14T10:11:47.446Z,1.60
2022-09-14T10:14:25.376Z,1.80
2022-09-14T10:16:53.932Z,1.58
2022-09-14T10:19:25.990Z,1.60
2022-09-14T10:22:06.706Z,1.60
2022-09-14T10:24:36.835Z,1.70
2022-09-14T10:27:38.079Z,1.48
2022-09-14T10:30:12.189Z,1.40
2022-09-14T10:32:42.502Z,1.50
2022-09-14T10:35:15.370Z,1.90
2022-09-14T10:38:04.184Z,1.98
2022-09-14T10:40:37.560Z,2.15
2022-09-14T10:43:14.319Z,2.83
2022-09-14T10:45:47.035Z,3.58
2022-09-14T10:48:48.370Z,3.83
2022-09-14T10:51:32.544Z,3.60
2022-09-14T10:54:08.733Z,3.65
2022-09-14T10:56:49.483Z,4.13
2022-09-14T10:59:31.773Z,3.97
2022-09-14T11:02:26.547Z,4.35
2022-09-14T11:05:09.121Z,5.22
2022-09-14T11:07:46.929Z,4.80
2022-09-14T11:10:21.863Z,5.47
2022-09-14T11:13:12.103Z,6.03
2022-09-14T11:15:51.386Z,6.18
2022-09-14T11:18:32.818Z,5.78
2022-09-14T11:21:08.902Z,6.30
2022-09-14T11:23:49.173Z,5.63
2022-09-14T11:26:24.619Z,6.28
2022-09-14T11:28:56.093Z,6.40
2022-09-14T11:31:30.137Z,6.75
2022-09-14T11:34:05.744Z,6.55
2022-09-14T11:36:38.268Z,6.22
2022-09-14T11:39:13.657Z,6.95
2022-09-14T11:41:48.456Z,7.18
2022-09-14T11:44:20.367Z,7.72
2022-09-14T11:46:58.711Z,7.05
2022-09-14T11:49:32.786Z,7.10
2022-09-14T11:52:08.119Z,7.93
2022-09-14T11:54:44.664Z,7.88
2022-09-14T11:57:18.679Z,8.77
2022-09-14T11:59:55.134Z,8.88
2022-09-14T12:03:02.468Z,10.00
2022-09-14T12:05:35.717Z,10.13
2022-09-14T12:08:41.299Z,9.82
2022-09-14T12:11:35.007Z,9.15
2022-09-14T12:14:30.273Z,9.93
2022-09-14T12:20:44.019Z,10.93
2022-09-14T12:23:27.930Z,10.13
2022-09-14T12:26:00.956Z,10.05
2022-09-14T12:28:40.999Z,10.60
2022-09-14T12:31:32.933Z,11.13
2022-09-14T12:37:27.260Z,10.32
2022-09-14T12:42:52.281Z,10.27
2022-09-14T12:45:49.651Z,12.05
2022-09-14T12:48:47.605Z,10.40
2022-09-14T12:51:23.618Z,10.40
2022-09-14T12:54:03.579Z,9.48
2022-09-14T12:56:39.427Z,11.18
2022-09-14T12:59:12.471Z,9.18
2022-09-14T13:01:49.878Z,11.13
2022-09-14T13:04:24.982Z,11.27
2022-09-14T13:06:54.344Z,11.18
2022-09-14T13:09:26.242Z,8.80
2022-09-14T13:12:00.068Z,10.65
2022-09-14T13:14:31.590Z,10.40
2022-09-14T13:17:03.237Z,9.70
2022-09-14T13:19:33.708Z,9.52
2022-09-14T13:22:03.785Z,11.25
2022-09-14T13:24:38.778Z,10.57
2022-09-14T13:27:16.400Z,11.05
2022-09-14T13:29:44.497Z,10.10
2022-09-14T13:32:18.951Z,10.55
2022-09-14T13:34:47.843Z,9.43
2022-09-14T13:37:16.812Z,9.63
2022-09-14T13:39:52.014Z,9.68
2022-09-14T13:42:20.765Z,10.00
2022-09-14T13:44:49.961Z,9.65
2022-09-14T13:47:20.519Z,9.10
2022-09-14T13:49:50.424Z,9.50
2022-09-14T13:52:20.339Z,10.48
2022-09-14T13:54:50.527Z,10.88
2022-09-14T13:57:21.123Z,10.02
2022-09-14T14:00:19.961Z,10.20
2022-09-14T14:02:50.981Z,9.95
2022-09-14T14:05:27.764Z,10.55
2022-09-14T14:07:57.945Z,10.05
2022-09-14T14:10:31.001Z,10.43
2022-09-14T14:12:59.355Z,10.35
2022-09-14T14:15:40.622Z,9.88
2022-09-14T14:18:31.131Z,8.38
2022-09-14T14:21:07.129Z,7.90
2022-09-14T14:23:36.402Z,10.18
2022-09-14T14:26:17.026Z,9.90
2022-09-14T14:28:45.255Z,9.98
2022-09-14T14:31:15.720Z,9.48
2022-09-14T14:33:48.005Z,10.50
2022-09-14T14:36:16.528Z,7.72
2022-09-14T14:38:45.247Z,10.15
2022-09-14T14:41:18.570Z,9.50
2022-09-14T14:43:47.506Z,9.50
2022-09-14T14:46:16.664Z,9.05
2022-09-14T14:48:45.111Z,9.45
2022-09-14T14:51:15.181Z,9.27
2022-09-14T14:53:44.731Z,10.10
2022-09-14T14:56:15.265Z,10.45
2022-09-14T14:58:45.468Z,10.73
2022-09-14T15:01:14.186Z,11.30
2022-09-14T15:03:42.415Z,10.73
2022-09-14T15:06:16.105Z,11.80
2022-09-14T15:08:44.394Z,9.25
2022-09-14T15:11:17.909Z,11.27
2022-09-14T15:13:50.141Z,2.78
2022-09-14T15:16:18.649Z,6.63
2022-09-14T15:18:46.819Z,6.72
2022-09-14T15:21:14.899Z,9.85
2022-09-14T15:23:42.987Z,10.65
2022-09-14T15:26:11.017Z,10.32
2022-09-14T15:28:40.439Z,10.18
2022-09-14T15:31:08.505Z,10.70
2022-09-14T15:33:36.580Z,10.88
2022-09-14T15:36:04.718Z,10.35
2022-09-14T15:38:32.803Z,11.02
2022-09-14T15:41:00.821Z,9.48
2022-09-14T15:43:28.972Z,9.52
2022-09-14T15:46:03.478Z,8.50
2022-09-14T15:48:31.646Z,10.35
2022-09-14T15:51:00.700Z,8.65
2022-09-14T15:53:28.730Z,9.75
2022-09-14T15:55:57.310Z,9.90
2022-09-14T15:58:25.435Z,7.28
2022-09-14T16:00:53.481Z,7.07
2022-09-14T16:03:23.050Z,6.65
2022-09-14T16:05:51.078Z,8.18
2022-09-14T16:08:19.189Z,9.52
2022-09-14T16:10:47.665Z,8.30
2022-09-14T16:13:15.779Z,7.88
2022-09-14T16:15:44.134Z,8.43
2022-09-14T16:18:12.232Z,7.72
2022-09-14T16:20:41.669Z,10.15
2022-09-14T16:23:09.826Z,8.80
2022-09-14T16:25:40.634Z,7.55
2022-09-14T16:28:08.705Z,7.15
2022-09-14T16:30:36.801Z,6.78
2022-09-14T16:33:05.017Z,6.13
2022-09-14T16:35:33.094Z,7.63
2022-09-14T16:38:02.525Z,6.18
2022-09-14T16:40:31.587Z,6.93
2022-09-14T16:43:00.081Z,7.97
2022-09-14T16:45:28.178Z,9.10
2022-09-14T16:47:56.279Z,8.05
2022-09-14T16:50:24.476Z,2.80
2022-09-14T16:52:52.540Z,1.30
2022-09-14T16:55:21.998Z,1.13
2022-09-14T16:57:50.060Z,0.60
2022-09-14T17:00:18.318Z,0.60
2022-09-14T17:02:46.473Z,0.70
2022-09-14T17:05:14.603Z,0.50
2022-09-14T17:07:42.648Z,0.73
2022-09-14T17:10:11.411Z,0.50
2022-09-14T17:12:40.876Z,0.40
2022-09-14T17:15:10.767Z,0.55
2022-09-14T17:17:38.856Z,0.40
2022-09-14T17:20:08.604Z,0.28
2022-09-14T17:22:36.761Z,0.30
2022-09-14T17:25:05.333Z,0.63
2022-09-14T17:27:33.375Z,0.70
2022-09-14T17:30:02.990Z,0.40
2022-09-14T17:32:31.175Z,0.25
2022-09-14T17:34:59.358Z,0.30
2022-09-14T17:37:27.578Z,0.30
2022-09-14T17:39:55.781Z,0.20
2022-09-14T17:42:23.954Z,0.30
2022-09-14T17:44:52.105Z,0.22
2022-09-14T17:47:21.736Z,0.25
2022-09-14T17:49:49.884Z,0.20
2022-09-14T17:52:17.943Z,0.40
2022-09-14T17:54:46.014Z,0.50
2022-09-14T17:57:14.052Z,0.43
2022-09-14T17:59:42.251Z,0.40
2022-09-14T18:02:10.899Z,0.40
2022-09-14T18:04:41.742Z,0.30
2022-09-14T18:07:11.396Z,0.30
2022-09-14T18:09:39.582Z,0.55
2022-09-14T18:12:10.341Z,0.50
2022-09-14T18:14:38.464Z,0.30
2022-09-14T18:17:06.540Z,0.57
2022-09-14T18:19:34.635Z,0.77
2022-09-14T18:22:04.183Z,1.00
2022-09-14T18:24:32.484Z,1.25
2022-09-14T18:27:01.021Z,1.05
2022-09-14T18:29:29.836Z,1.13
2022-09-14T18:31:58.038Z,1.30
2022-09-14T18:34:26.834Z,1.35
2022-09-14T18:36:55.025Z,1.80
2022-09-14T18:39:24.775Z,1.35
2022-09-14T18:41:54.203Z,1.70
2022-09-14T18:44:22.622Z,1.15
2022-09-14T18:47:01.535Z,0.90
2022-09-14T18:49:29.664Z,0.93
2022-09-14T18:51:57.770Z,1.00
2022-09-14T18:54:27.870Z,1.13
2022-09-14T18:56:56.064Z,0.80
2022-09-14T18:59:24.127Z,1.02
2022-09-14T19:01:52.313Z,0.77
2022-09-14T19:04:20.419Z,1.23
2022-09-14T19:06:48.528Z,1.40
2022-09-14T19:09:16.596Z,1.40
2022-09-14T19:11:46.089Z,1.80
2022-09-14T19:14:21.982Z,1.60
2022-09-14T19:16:51.414Z,1.90
2022-09-14T19:19:19.710Z,1.77
2022-09-14T19:21:47.764Z,1.50
2022-09-14T19:24:17.521Z,1.45
2022-09-14T19:26:49.202Z,1.70
2022-09-14T19:29:20.412Z,1.65
2022-09-14T19:31:51.535Z,1.90
2022-09-14T19:34:20.916Z,1.58
2022-09-14T19:36:50.839Z,1.83
2022-09-14T19:39:19.103Z,1.35
2022-09-14T19:41:51.796Z,1.80
2022-09-14T19:44:22.319Z,1.67
2022-09-14T19:46:50.834Z,1.40
2022-09-14T19:49:21.337Z,1.30
2022-09-14T19:51:50.076Z,1.75
2022-09-14T19:54:18.436Z,1.50
2022-09-14T19:56:48.199Z,1.63
2022-09-14T19:59:17.102Z,1.63
2022-09-14T20:01:46.270Z,1.75
2022-09-14T20:04:15.730Z,2.05
2022-09-14T20:06:45.711Z,1.67
2022-09-14T20:09:16.793Z,2.00
2022-09-14T20:11:46.551Z,1.98
2022-09-14T20:14:17.723Z,2.10
2022-09-14T20:16:48.235Z,2.00
2022-09-14T20:19:18.031Z,1.80
2022-09-14T20:21:47.539Z,1.85
2022-09-14T20:24:18.919Z,1.88
2022-09-14T20:26:48.133Z,2.00
2022-09-14T20:29:19.027Z,2.28
2022-09-14T20:31:48.155Z,1.70
2022-09-14T20:34:18.284Z,2.00
2022-09-14T20:36:46.753Z,2.08
2022-09-14T20:39:14.981Z,2.13
2022-09-14T20:41:43.311Z,2.53
2022-09-14T20:44:12.018Z,2.55
2022-09-14T20:46:44.878Z,2.72
2022-09-14T20:49:15.054Z,3.00
2022-09-14T20:51:43.984Z,3.03
2022-09-14T20:54:13.901Z,3.03
2022-09-14T20:56:42.774Z,3.25
2022-09-14T20:59:16.846Z,3.53
2022-09-14T21:01:49.413Z,2.88
2022-09-14T21:04:19.816Z,3.00
2022-09-14T21:06:50.052Z,2.55
2022-09-14T21:09:19.102Z,2.78
2022-09-14T21:11:47.911Z,2.80
2022-09-14T21:14:17.200Z,2.70
2022-09-14T21:16:48.411Z,2.17
2022-09-14T21:19:19.417Z,2.70
2022-09-14T21:21:48.739Z,2.43
2022-09-14T21:24:17.824Z,1.95
2022-09-14T21:26:46.651Z,2.38
2022-09-14T21:29:17.334Z,2.22
2022-09-14T21:31:46.874Z,2.25
2022-09-14T21:34:14.980Z,2.58
2022-09-14T21:36:46.208Z,2.28
2022-09-14T21:39:16.603Z,2.50
2022-09-14T21:41:46.257Z,2.42
2022-09-14T21:44:14.991Z,2.90
2022-09-14T21:46:43.588Z,2.25
2022-09-14T21:49:15.880Z,2.55
2022-09-14T21:51:44.634Z,2.75
2022-09-14T21:54:14.555Z,2.20
2022-09-14T21:56:44.795Z,3.00
2022-09-14T21:59:16.061Z,3.17
2022-09-14T22:01:44.551Z,3.50
2022-09-14T22:04:17.435Z,3.42
2022-09-14T22:06:46.242Z,2.97
2022-09-14T22:09:15.043Z,3.38
2022-09-14T22:11:43.173Z,3.17
2022-09-14T22:14:15.493Z,3.20
2022-09-14T22:16:43.862Z,3.35
2022-09-14T22:19:17.533Z,3.88
2022-09-14T22:21:45.692Z,3.70
2022-09-14T22:24:17.346Z,3.03
2022-09-14T22:26:46.558Z,3.30
2022-09-14T22:29:15.572Z,2.90
2022-09-14T22:31:45.068Z,2.50
2022-09-14T22:34:14.696Z,2.42
2022-09-14T22:36:42.950Z,2.72
2022-09-14T22:39:11.660Z,2.85
2022-09-14T22:41:40.366Z,3.03
2022-09-14T22:44:09.524Z,3.03
2022-09-14T22:46:37.613Z,2.88
2022-09-14T22:49:05.924Z,2.60
2022-09-14T22:51:38.103Z,3.03
2022-09-14T22:54:07.275Z,2.55
2022-09-14T22:56:37.011Z,2.97
2022-09-14T22:59:07.035Z,2.38
2022-09-14T23:01:37.286Z,2.60
2022-09-14T23:04:07.290Z,3.13
2022-09-14T23:06:39.202Z,2.88
2022-09-14T23:09:09.146Z,3.40
2022-09-14T23:11:37.725Z,3.45
2022-09-14T23:14:05.916Z,4.45
2022-09-14T23:16:34.022Z,4.40
2022-09-14T23:19:03.913Z,3.97
2022-09-14T23:21:33.141Z,3.95
2022-09-14T23:24:05.399Z,2.97
2022-09-14T23:26:34.375Z,3.42
2022-09-14T23:29:09.165Z,3.30
2022-09-14T23:31:37.712Z,3.80
2022-09-14T23:34:06.793Z,4.25
2022-09-14T23:36:35.403Z,3.85
2022-09-14T23:39:05.524Z,4.68
2022-09-14T23:41:33.669Z,4.75
2022-09-14T23:44:01.912Z,4.43
2022-09-14T23:46:30.052Z,4.60
2022-09-14T23:48:58.220Z,4.25
2022-09-14T23:51:26.333Z,4.32
2022-09-14T23:53:56.804Z,4.07
2022-09-14T23:56:26.350Z,4.10
2022-09-14T23:58:54.423Z,4.15
